ZYTLZYTX

Guest
Details From ZYTL - ZHOUSHUIZI
To ZYTX - TAOXIAN
Flight Number -
Tags generated
Created
Modified
Stats Distance 184 nm / 340 km
Max Altitude 21,100 ft / 6,431 m
Waypoints 3
Social Downloads 0
Likes 0
Share VATSIM

Download

Looking for another format? Having issues loading an existing format? Contact us
Advertisement - Login to hide

Notes

Basic altitude profile: - Ascent Rate: 2500ft/min - Ascent Speed: 250kts - Cruise Altitude: 35000ft - Cruise Speed: 420kts - Descent Rate: 1500ft/min - Descent Speed: 250kts

Route

ZYTL MUPAM ZYTX

ID Type Via Altitude Latitude Longitude Leg Dist Tot Dist Heading (true) Name
O ZYTL APT - 0 ft / 0 m 38.96567˚ 121.53860˚ - 0 nm - ZHOUSHUIZI
MUPAM FIX - 21,100 ft / 6,431 m 40.22167˚ 122.38500˚ 84 nm 84 nm 27° / 28° -
O ZYTX APT - 0 ft / 0 m 41.63984˚ 123.48342˚ 98 nm 183 nm 30° / 31° TAOXIAN

Altitude Profile

Advertisement - Login to hide

Weather


0- 5 10 15 20 25 30 35+ Temperature / ° C

Clouds and Precipitation
Forecast for 2017-12-15 00:00 UTC. Updated 2 hours ago

Ground ~20,000 ft ~40,000 ft Winds

ZYTL

Details ICAO ZYTL (DLC)
Name ZHOUSHUIZI
Region China
Timezone Asia/Shanghai (UTC+8.0)
Stats Elevation 107 ft / 33 m (AMSL)
Location 38.965666° 121.538600°
Runways 1
Magnetic Variation 7.942° W

METAR

ZYTL 142100Z 31005MPS 4000 -RASN SCT033 01/M02 Q1027 NOSIG

Decode

TAF

Not found

Departure Runways

ID Width Length Bearing (true) Bearing (mag) Surface Threshold Offset Overrun Length
10 148 ft / 45 m 10,803 ft / 3,293 m 95.67° 103.61° Concrete 650 ft / 198 m 165 ft / 50 m
28 148 ft / 45 m 10,803 ft / 3,293 m 275.69° 283.63° Concrete 320 ft / 98 m 165 ft / 50 m

ZYTX

Details ICAO ZYTX (SHE)
Name TAOXIAN
Region China
Timezone Asia/Shanghai (UTC+8.0)
Stats Elevation 198 ft / 60 m (AMSL)
Location 41.639840° 123.483425°
Runways 1
Magnetic Variation 9.068° W

METAR

ZYTX 142100Z 07002MPS 4000 -SN OVC040 M08/M12 Q1027 NOSIG

Decode

TAF

Not found

Destination Runways

ID Width Length Bearing (true) Bearing (mag) Surface Threshold Offset Overrun Length
06 148 ft / 45 m 10,461 ft / 3,189 m 48.62° 57.69° Concrete 0 ft / 0 m 197 ft / 60 m
24 148 ft / 45 m 10,461 ft / 3,189 m 228.64° 237.71° Concrete 0 ft / 0 m 197 ft / 60 m

Approach Navaids

Runway Type Ident Frequency Range Bearing (true) Bearing (mag) Slope Elevation
06 Localiser IPU 110.50 MHz 18 nm / 33 km 51.79° 60.86° - 198 ft / 60 m (AMSL)
06 Glidescope IPU 110.50 MHz 10 nm / 19 km 48.63° 57.70° 3.00° 169 ft / 52 m (AMSL)
24 Localiser IKY 110.30 MHz 18 nm / 33 km 224.66° 233.72° - 198 ft / 60 m (AMSL)
24 Glidescope IKY 110.30 MHz 10 nm / 19 km 228.63° 237.70° 3.00° 198 ft / 60 m (AMSL)

Popular Alternatives